Time;durP1;ratioP1;P1;durP2;ratioP2;P2;SDS_P1;SDS_P2;PMS_P1;PMS_P2;Temp;Humidity;BMP_temperature;BMP_pressure;BME280_temperature;BME280_humidity;BME280_pressure;Samples;Min_cycle;Max_cycle;Signal;HPM_P1;HPM_P2
2022/04/23 00:00:51;;;;;;;;;;;;;;;;;;5026964;28;20008;-76
2022/04/23 00:03:17;;;;;;;;;;;9.80;1.00;;;;;;5030174;28;19905;-76
2022/04/23 00:05:49;;;;;;;;;;;9.80;1.00;;;;;;5014524;28;19917;-76
2022/04/23 00:08:15;;;;;;;;;;;;;;;;;;5007010;28;19917;-76
2022/04/23 00:13:31;;;;;;;;;;;9.80;1.00;;;;;;5002029;28;19913;-76
2022/04/23 00:15:57;;;;;;;;;;;9.70;1.00;;;;;;5014677;28;20039;-76
2022/04/23 00:18:22;;;;;;;;;;;9.70;1.00;;;;;;5012820;28;19960;-76
2022/04/23 00:20:48;;;;;;;;;;;;;;;;;;5014077;28;19971;-76
2022/04/23 00:23:14;;;;;;;;;;;9.50;1.00;;;;;;5023287;28;19987;-76
2022/04/23 00:25:42;;;;;;;;;;;9.50;1.00;;;;;;5021193;28;20043;-76
2022/04/23 00:28:09;;;;;;;;;;;9.50;1.00;;;;;;5003144;28;20327;-77
2022/04/23 00:30:35;;;;;;;;;;;9.50;1.00;;;;;;5025135;28;20349;-76
2022/04/23 00:33:02;;;;;;;;;;;;;;;;;;5001597;28;19910;-76
2022/04/23 00:35:28;;;;;;;;;;;;;;;;;;5014311;28;19905;-76
2022/04/23 00:37:55;;;;;;;;;;;9.40;1.00;;;;;;5025734;28;20276;-77
2022/04/23 00:40:31;;;;;;;;;;;;;;;;;;5014495;28;19910;-78
2022/04/23 00:43:36;;;;;;;;;;;9.30;1.00;;;;;;4994642;28;19956;-80
2022/04/23 00:46:25;;;;;;;;;;;9.20;1.00;;;;;;4973128;28;19917;-79
2022/04/23 00:48:51;;;;;;;;;;;;;;;;;;4998014;28;19909;-79
2022/04/23 00:51:29;;;;;;;;;;;9.20;1.00;;;;;;5011833;28;19905;-79
2022/04/23 00:54:13;;;;;;;;;;;;;;;;;;4994222;28;19906;-79
2022/04/23 00:56:39;;;;;;;;;;;;;;;;;;4975942;28;19986;-77
2022/04/23 00:59:08;;;;;;;;;;;;;;;;;;4992105;28;19910;-76
2022/04/23 01:01:34;;;;;;;;;;;8.90;1.00;;;;;;4992408;28;19910;-76
2022/04/23 01:04:02;;;;;;;;;;;;;;;;;;4999275;28;19921;-76
2022/04/23 01:06:28;;;;;;;;;;;;;;;;;;4998377;28;19917;-76
2022/04/23 01:08:53;;;;;;;;;;;9.00;1.00;;;;;;4984588;28;19910;-76
2022/04/23 01:11:32;;;;;;;;;;;9.00;1.00;;;;;;4992816;28;19913;-79
2022/04/23 01:14:01;;;;;;;;;;;;;;;;;;5000734;28;19945;-80
2022/04/23 01:16:27;;;;;;;;;;;8.90;1.00;;;;;;5006678;28;19957;-80
2022/04/23 01:19:07;;;;;;;;;;;8.80;1.00;;;;;;4992945;28;19948;-80
2022/04/23 01:21:34;;;;;;;;;;;8.80;1.00;;;;;;5013722;28;19906;-80
2022/04/23 01:23:59;;;;;;;;;;;8.80;1.00;;;;;;5013621;28;20352;-80
2022/04/23 01:26:31;;;;;;;;;;;8.70;1.00;;;;;;5013686;28;19905;-79
2022/04/23 01:29:01;;;;;;;;;;;;;;;;;;5005823;28;19909;-80
2022/04/23 01:31:32;;;;;;;;;;;8.60;1.00;;;;;;5033529;28;19905;-80
2022/04/23 01:34:13;;;;;;;;;;;;;;;;;;5030242;28;19916;-80
2022/04/23 01:39:44;;;;;;;;;;;8.70;1.00;;;;;;5007947;28;19956;-80
2022/04/23 01:42:43;;;;;;;;;;;8.60;1.00;;;;;;5027916;28;19906;-79
2022/04/23 01:48:12;;;;;;;;;;;;;;;;;;5000431;28;19916;-80
2022/04/23 01:50:50;;;;;;;;;;;;;;;;;;4997287;28;19910;-80
2022/04/23 01:53:18;;;;;;;;;;;8.50;1.00;;;;;;5000576;28;19929;-80
2022/04/23 01:55:53;;;;;;;;;;;8.40;1.00;;;;;;5036726;28;19905;-80
2022/04/23 01:58:19;;;;;;;;;;;;;;;;;;5020141;28;19913;-77
2022/04/23 02:00:55;;;;;;;;;;;8.40;1.00;;;;;;5017260;28;19905;-76
2022/04/23 02:03:21;;;;;;;;;;;8.20;1.00;;;;;;5017594;28;20308;-76
2022/04/23 02:05:49;;;;;;;;;;;8.30;1.00;;;;;;5016853;28;19917;-76
2022/04/23 02:08:19;;;;;;;;;;;;;;;;;;5014566;28;19910;-76
2022/04/23 02:10:47;;;;;;;;;;;8.30;1.00;;;;;;5021190;28;19940;-76
2022/04/23 02:13:19;;;;;;;;;;;8.20;1.00;;;;;;5031121;28;19910;-80
2022/04/23 02:18:29;;;;;;;;;;;8.00;1.00;;;;;;5024463;28;19916;-80
2022/04/23 02:20:55;;;;;;;;;;;;;;;;;;5001231;28;19992;-80
2022/04/23 02:23:25;;;;;;;;;;;8.00;1.00;;;;;;5016336;28;19916;-80
2022/04/23 02:26:01;;;;;;;;;;;7.90;1.00;;;;;;5020042;28;19909;-80
2022/04/23 02:28:27;;;;;;;;;;;7.90;1.00;;;;;;5022759;28;19912;-79
2022/04/23 02:30:52;;;;;;;;;;;7.90;1.00;;;;;;5014044;28;20004;-80
2022/04/23 02:33:19;;;;;;;;;;;;;;;;;;5027663;28;19909;-80
2022/04/23 02:35:55;;;;;;;;;;;7.80;1.00;;;;;;5035968;28;19940;-80
2022/04/23 02:41:06;;;;;;;;;;;7.80;1.00;;;;;;5013608;28;19951;-80
2022/04/23 02:43:38;;;;;;;;;;;7.80;1.00;;;;;;5034401;28;19912;-77
2022/04/23 02:46:19;;;;;;;;;;;7.70;1.00;;;;;;5016410;28;20368;-77
2022/04/23 02:48:45;;;;;;;;;;;;;;;;;;5010418;28;19916;-78
2022/04/23 02:51:16;;;;;;;;;;;;;;;;;;5012505;28;19992;-77
2022/04/23 02:53:43;;;;;;;;;;;7.80;1.00;;;;;;5015997;28;20000;-77
2022/04/23 02:56:13;;;;;;;;;;;7.80;1.00;;;;;;5015782;28;19913;-77
2022/04/23 03:01:23;;;;;;;;;;;7.70;1.00;;;;;;5025930;28;20329;-80
2022/04/23 03:03:54;;;;;;;;;;;7.70;1.00;;;;;;5026901;28;20011;-80
2022/04/23 03:06:37;;;;;;;;;;;7.70;1.00;;;;;;4998072;28;19914;-80
2022/04/23 03:09:37;;;;;;;;;;;7.70;1.00;;;;;;4997498;28;20361;-80
2022/04/23 03:12:13;;;;;;;;;;;7.80;1.00;;;;;;5015957;28;19951;-80
2022/04/23 03:14:49;;;;;;;;;;;7.80;1.00;;;;;;5028295;28;19932;-80
2022/04/23 03:17:19;;;;;;;;;;;;;;;;;;5027799;28;19905;-79
2022/04/23 03:19:55;;;;;;;;;;;7.70;1.00;;;;;;5016595;28;20380;-80
2022/04/23 03:22:31;;;;;;;;;;;7.60;1.00;;;;;;5015235;28;19916;-80
2022/04/23 03:24:57;;;;;;;;;;;7.70;1.00;;;;;;5034949;28;20007;-80
2022/04/23 03:27:31;;;;;;;;;;;7.70;1.00;;;;;;5019365;28;19952;-79
2022/04/23 03:30:25;;;;;;;;;;;7.70;1.00;;;;;;5014477;28;19909;-80
2022/04/23 03:32:51;;;;;;;;;;;;;;;;;;5015212;28;19906;-80
2022/04/23 03:35:17;;;;;;;;;;;7.60;1.00;;;;;;5029270;28;19905;-80
2022/04/23 03:37:43;;;;;;;;;;;7.60;1.00;;;;;;5027514;28;20483;-80
2022/04/23 03:40:19;;;;;;;;;;;7.60;1.00;;;;;;5013697;28;19920;-80
2022/04/23 03:42:48;;;;;;;;;;;7.60;1.00;;;;;;4998874;28;19914;-80
2022/04/23 03:45:14;;;;;;;;;;;7.60;1.00;;;;;;4995117;28;19914;-80
2022/04/23 03:47:44;;;;;;;;;;;7.50;1.00;;;;;;4995485;28;19941;-80
2022/04/23 03:50:20;;;;;;;;;;;7.50;1.00;;;;;;5002004;28;19909;-80
2022/04/23 03:52:49;;;;;;;;;;;;;;;;;;5026184;28;19912;-80
2022/04/23 03:58:00;;;;;;;;;;;7.50;1.00;;;;;;5034751;28;20000;-80
2022/04/23 04:00:26;;;;;;;;;;;7.50;1.00;;;;;;5007555;28;19910;-78
2022/04/23 04:03:07;;;;;;;;;;;7.40;1.00;;;;;;4995647;28;19916;-77
2022/04/23 04:05:33;;;;;;;;;;;7.40;1.00;;;;;;5010982;28;19924;-78
2022/04/23 04:08:01;;;;;;;;;;;;;;;;;;5010265;28;19913;-77
2022/04/23 04:10:31;;;;;;;;;;;;;;;;;;5026401;28;19909;-77
2022/04/23 04:13:02;;;;;;;;;;;7.40;1.00;;;;;;5030672;28;19932;-78
2022/04/23 04:15:38;;;;;;;;;;;;;;;;;;5011681;28;19913;-78
2022/04/23 04:18:05;;;;;;;;;;;7.50;1.00;;;;;;5025614;28;19909;-78
2022/04/23 04:20:32;;;;;;;;;;;;;;;;;;5013945;28;19910;-78
2022/04/23 04:23:01;;;;;;;;;;;7.50;1.00;;;;;;5008272;28;19944;-78
2022/04/23 04:25:27;;;;;;;;;;;7.50;1.00;;;;;;5022290;28;20355;-78
2022/04/23 04:28:13;;;;;;;;;;;7.50;1.00;;;;;;5034753;28;19909;-80
2022/04/23 04:34:13;;;;;;;;;;;7.50;1.00;;;;;;5034019;28;19990;-80
2022/04/23 04:36:39;;;;;;;;;;;;;;;;;;5034110;28;19964;-80
2022/04/23 04:39:07;;;;;;;;;;;7.60;1.00;;;;;;5020451;28;19913;-80
2022/04/23 04:41:35;;;;;;;;;;;7.60;1.00;;;;;;5018053;28;20384;-80
2022/04/23 04:44:07;;;;;;;;;;;;;;;;;;5027624;28;19949;-77
2022/04/23 04:46:38;;;;;;;;;;;7.60;1.00;;;;;;5027591;28;19912;-77
2022/04/23 04:49:05;;;;;;;;;;;7.70;1.00;;;;;;5017546;28;19917;-77
2022/04/23 04:51:43;;;;;;;;;;;7.80;1.00;;;;;;5008324;28;19910;-77
2022/04/23 04:54:21;;;;;;;;;;;7.70;1.00;;;;;;5015530;28;19913;-77
2022/04/23 04:56:47;;;;;;;;;;;7.80;1.00;;;;;;5013118;28;19905;-77
2022/04/23 04:59:13;;;;;;;;;;;7.80;1.00;;;;;;5024252;28;19905;-80
2022/04/23 05:01:43;;;;;;;;;;;7.90;1.00;;;;;;5014510;28;20268;-81
2022/04/23 05:04:25;;;;;;;;;;;8.00;1.00;;;;;;5023068;28;20006;-80
2022/04/23 05:06:55;;;;;;;;;;;7.90;1.00;;;;;;5015618;28;19956;-80
2022/04/23 05:09:37;;;;;;;;;;;;;;;;;;5027090;28;19964;-80
2022/04/23 05:12:07;;;;;;;;;;;8.10;1.00;;;;;;5012680;28;20000;-80
2022/04/23 05:14:33;;;;;;;;;;;8.30;1.00;;;;;;5025903;28;19917;-77
2022/04/23 05:16:59;;;;;;;;;;;;;;;;;;5015563;28;19910;-77
2022/04/23 05:19:24;;;;;;;;;;;8.70;1.00;;;;;;5013404;28;19909;-77
2022/04/23 05:22:01;;;;;;;;;;;;;;;;;;5010673;28;19920;-78
2022/04/23 05:24:31;;;;;;;;;;;9.10;1.00;;;;;;5022957;28;19909;-77
2022/04/23 05:27:01;;;;;;;;;;;9.20;1.00;;;;;;5037669;28;19909;-77
2022/04/23 05:29:27;;;;;;;;;;;9.30;1.00;;;;;;5031305;28;20003;-80
2022/04/23 05:32:01;;;;;;;;;;;9.30;1.00;;;;;;5004749;28;19960;-80
2022/04/23 05:34:28;;;;;;;;;;;9.40;1.00;;;;;;5009781;28;19909;-80
2022/04/23 05:36:54;;;;;;;;;;;9.40;1.00;;;;;;5031951;28;20384;-80
2022/04/23 05:39:20;;;;;;;;;;;9.40;1.00;;;;;;5030316;28;19992;-80
2022/04/23 05:42:13;;;;;;;;;;;9.60;1.00;;;;;;5019072;28;19909;-80
2022/04/23 05:44:39;;;;;;;;;;;;;;;;;;5006194;28;19985;-72
2022/04/23 05:47:05;;;;;;;;;;;9.80;1.00;;;;;;5012352;28;19910;-72
2022/04/23 05:49:31;;;;;;;;;;;;;;;;;;5023987;28;19909;-72
2022/04/23 05:51:57;;;;;;;;;;;;;;;;;;5023025;28;20040;-72
2022/04/23 05:54:22;;;;;;;;;;;10.00;1.00;;;;;;5027983;28;19909;-72
2022/04/23 05:56:48;;;;;;;;;;;10.20;1.00;;;;;;5026206;28;19916;-72
2022/04/23 05:59:19;;;;;;;;;;;10.30;1.00;;;;;;5017070;28;19913;-80
2022/04/23 06:01:49;;;;;;;;;;;;;;;;;;5035613;28;19905;-81
2022/04/23 06:04:31;;;;;;;;;;;10.90;1.00;;;;;;5036811;28;19917;-80
2022/04/23 06:06:57;;;;;;;;;;;11.10;1.00;;;;;;5012991;28;19913;-80
2022/04/23 06:09:43;;;;;;;;;;;11.20;1.00;;;;;;5022308;28;19916;-80
2022/04/23 06:12:09;;;;;;;;;;;;;;;;;;5016822;28;19913;-80
2022/04/23 06:14:37;;;;;;;;;;;11.50;1.00;;;;;;5021024;28;19905;-80
2022/04/23 06:17:08;;;;;;;;;;;11.60;1.00;;;;;;5029508;28;19948;-80
2022/04/23 06:19:43;;;;;;;;;;;11.80;1.00;;;;;;5018031;28;19971;-80
2022/04/23 06:22:13;;;;;;;;;;;;;;;;;;5016687;28;19909;-80
2022/04/23 06:24:39;;;;;;;;;;;;;;;;;;5036587;28;20010;-79
2022/04/23 06:27:07;;;;;;;;;;;12.50;1.00;;;;;;5023172;28;20345;-79
2022/04/23 06:29:33;;;;;;;;;;;12.60;1.00;;;;;;5016389;28;19906;-73
2022/04/23 06:31:58;;;;;;;;;;;;;;;;;;5016660;28;20419;-72
2022/04/23 06:34:25;;;;;;;;;;;13.00;1.00;;;;;;5023227;28;19910;-72
2022/04/23 06:36:51;;;;;;;;;;;;;;;;;;5020826;28;19988;-73
2022/04/23 06:39:17;;;;;;;;;;;;;;;;;;5024458;28;19937;-72
2022/04/23 06:41:42;;;;;;;;;;;13.50;1.00;;;;;;5019047;28;20416;-72
2022/04/23 06:44:08;;;;;;;;;;;;;;;;;;5015311;28;20024;-73
2022/04/23 06:46:34;;;;;;;;;;;13.60;1.00;;;;;;5010617;28;20288;-72
2022/04/23 06:49:05;;;;;;;;;;;;;;;;;;5022836;28;19991;-72
2022/04/23 06:51:31;;;;;;;;;;;;;;;;;;5026975;28;19939;-72
2022/04/23 06:53:56;;;;;;;;;;;14.10;99.90;;;;;;5021048;28;19909;-72
2022/04/23 06:56:22;;;;;;;;;;;14.40;99.90;;;;;;5011286;28;20272;-72
2022/04/23 06:58:48;;;;;;;;;;;14.40;99.90;;;;;;5022361;28;20325;-74
2022/04/23 07:01:15;;;;;;;;;;;14.50;99.90;;;;;;5020008;28;19916;-79
2022/04/23 07:03:41;;;;;;;;;;;;;;;;;;5015658;28;20357;-79
2022/04/23 07:06:07;;;;;;;;;;;14.70;99.90;;;;;;5015810;28;19913;-79
2022/04/23 07:08:33;;;;;;;;;;;14.60;99.90;;;;;;5015886;28;19905;-79
2022/04/23 07:10:59;;;;;;;;;;;;;;;;;;5004901;28;20054;-79
2022/04/23 07:13:25;;;;;;;;;;;14.60;99.90;;;;;;5015870;28;19927;-79
2022/04/23 07:15:51;;;;;;;;;;;;;;;;;;5015050;28;19910;-72
2022/04/23 07:18:17;;;;;;;;;;;15.00;99.90;;;;;;5009052;28;19916;-73
2022/04/23 07:20:42;;;;;;;;;;;15.10;99.90;;;;;;5021567;28;19910;-73
2022/04/23 07:25:52;;;;;;;;;;;15.70;99.90;;;;;;5021880;28;20392;-73
2022/04/23 07:28:20;;;;;;;;;;;;;;;;;;5034783;28;19906;-72
2022/04/23 07:30:46;;;;;;;;;;;15.90;99.90;;;;;;5025198;28;19916;-79
2022/04/23 07:37:28;;;;;;;;;;;16.10;99.90;;;;;;5003966;28;19905;-78
2022/04/23 07:38:46;;;;;;;;;;;16.30;99.90;;;;;;5029182;28;19911;-78
2022/04/23 07:41:12;;;;;;;;;;;16.30;99.90;;;;;;5022822;28;19909;-74
2022/04/23 07:43:38;;;;;;;;;;;;;;;;;;5022624;28;19979;-74
2022/04/23 07:46:07;;;;;;;;;;;16.60;99.90;;;;;;5022356;28;19916;-78
2022/04/23 07:48:33;;;;;;;;;;;16.50;99.90;;;;;;4997555;28;19964;-77
2022/04/23 07:50:59;;;;;;;;;;;;;;;;;;5025232;28;19992;-77
2022/04/23 07:53:25;;;;;;;;;;;16.50;99.90;;;;;;5027492;28;19906;-77
2022/04/23 07:55:51;;;;;;;;;;;16.50;99.90;;;;;;5020317;28;19912;-77
2022/04/23 07:58:17;;;;;;;;;;;16.60;99.90;;;;;;5014643;28;19916;-72
2022/04/23 08:00:45;;;;;;;;;;;16.50;99.90;;;;;;4996842;28;19925;-77
2022/04/23 08:03:10;;;;;;;;;;;16.50;99.90;;;;;;5025316;28;19916;-77
2022/04/23 08:05:36;;;;;;;;;;;16.50;99.90;;;;;;5007140;28;19922;-77
2022/04/23 08:08:07;;;;;;;;;;;16.40;99.90;;;;;;5022494;28;20272;-76
2022/04/23 08:10:33;;;;;;;;;;;;;;;;;;5008549;28;19988;-77
2022/04/23 08:12:59;;;;;;;;;;;;;;;;;;5010617;28;19917;-76
2022/04/23 08:15:28;;;;;;;;;;;16.70;99.90;;;;;;5026205;28;19991;-77
2022/04/23 08:18:01;;;;;;;;;;;16.90;99.90;;;;;;5017632;28;19916;-77
2022/04/23 08:20:30;;;;;;;;;;;17.30;99.90;;;;;;5023435;28;19909;-76
2022/04/23 08:23:02;;;;;;;;;;;17.40;99.90;;;;;;5005228;28;19910;-77
2022/04/23 08:25:28;;;;;;;;;;;17.40;99.90;;;;;;5019393;28;19959;-78
2022/04/23 08:27:54;;;;;;;;;;;17.30;99.90;;;;;;5013090;28;19909;-77
2022/04/23 08:30:37;;;;;;;;;;;;;;;;;;5013663;28;19909;-86
2022/04/23 08:33:06;;;;;;;;;;;17.40;99.90;;;;;;5016982;28;19952;-75
2022/04/23 08:35:32;;;;;;;;;;;;;;;;;;5025694;28;20335;-76
2022/04/23 08:38:01;;;;;;;;;;;;;;;;;;5006093;28;19909;-76
2022/04/23 08:40:29;;;;;;;;;;;17.80;99.90;;;;;;5022860;28;19932;-77
2022/04/23 08:42:56;;;;;;;;;;;17.80;99.90;;;;;;5012630;28;19910;-72
2022/04/23 08:45:25;;;;;;;;;;;;;;;;;;5027919;28;20360;-78
2022/04/23 08:47:50;;;;;;;;;;;;;;;;;;5030354;28;19992;-73
2022/04/23 08:53:22;;;;;;;;;;;18.10;99.90;;;;;;5021898;28;19917;-84
2022/04/23 08:55:48;;;;;;;;;;;18.10;99.90;;;;;;5017980;28;20316;-85
2022/04/23 08:58:15;;;;;;;;;;;18.10;99.90;;;;;;5007771;28;19914;-85
2022/04/23 09:00:43;;;;;;;;;;;18.40;99.90;;;;;;4998672;28;19913;-82
2022/04/23 09:03:13;;;;;;;;;;;;;;;;;;5017951;28;19940;-77
2022/04/23 09:05:39;;;;;;;;;;;18.40;99.90;;;;;;5018073;28;19922;-76
2022/04/23 09:08:05;;;;;;;;;;;18.30;99.90;;;;;;5021783;28;19955;-78
2022/04/23 09:10:31;;;;;;;;;;;;;;;;;;5017901;28;20499;-74
2022/04/23 09:13:01;;;;;;;;;;;18.20;99.90;;;;;;5014587;28;19910;-76
2022/04/23 09:23:46;;;;;;;;;;;18.70;99.90;;;;;;5017106;28;19965;-76
2022/04/23 09:26:26;;;;;;;;;;;18.60;99.90;;;;;;5016787;28;19909;-76
2022/04/23 09:28:52;;;;;;;;;;;18.30;99.90;;;;;;5017418;28;19960;-75
2022/04/23 09:31:19;;;;;;;;;;;18.30;99.90;;;;;;5030483;28;19972;-75
2022/04/23 09:33:55;;;;;;;;;;;18.00;99.90;;;;;;5016795;28;20383;-76
2022/04/23 09:36:21;;;;;;;;;;;17.80;99.90;;;;;;5022543;28;20476;-76
2022/04/23 09:39:03;;;;;;;;;;;17.90;99.90;;;;;;5029291;28;19912;-75
2022/04/23 09:41:32;;;;;;;;;;;18.00;99.90;;;;;;5030012;28;19912;-78
2022/04/23 09:44:01;;;;;;;;;;;;;;;;;;5014485;28;19947;-76
2022/04/23 09:46:27;;;;;;;;;;;17.90;99.90;;;;;;5005692;28;19957;-75
2022/04/23 09:49:03;;;;;;;;;;;18.00;99.90;;;;;;5017430;28;19975;-76
2022/04/23 09:51:28;;;;;;;;;;;18.30;99.90;;;;;;5026390;28;19913;-76
2022/04/23 09:53:55;;;;;;;;;;;18.50;99.90;;;;;;5019894;28;20308;-75
2022/04/23 09:56:25;;;;;;;;;;;18.80;99.90;;;;;;5014818;28;20323;-75
2022/04/23 09:58:55;;;;;;;;;;;19.20;99.90;;;;;;5019171;28;19909;-76
2022/04/23 10:01:22;;;;;;;;;;;19.30;99.90;;;;;;5026498;28;19917;-75
2022/04/23 10:03:52;;;;;;;;;;;19.50;99.90;;;;;;5017034;28;19914;-75
2022/04/23 10:06:20;;;;;;;;;;;19.70;99.90;;;;;;5021146;28;20354;-75
2022/04/23 10:08:51;;;;;;;;;;;19.50;99.90;;;;;;5009901;28;19909;-75
2022/04/23 10:11:20;;;;;;;;;;;19.50;99.90;;;;;;5024875;28;19912;-75
2022/04/23 10:13:48;;;;;;;;;;;19.60;99.90;;;;;;5032780;28;19912;-75
2022/04/23 10:16:13;;;;;;;;;;;19.50;99.90;;;;;;5027948;28;19913;-74
2022/04/23 10:18:39;;;;;;;;;;;;;;;;;;5033469;28;19920;-76
2022/04/23 10:21:08;;;;;;;;;;;;;;;;;;5022637;28;19912;-75
2022/04/23 10:26:09;;;;;;;;;;;;;;;;;;5015703;28;19913;-76
2022/04/23 10:28:48;;;;;;;;;;;19.00;99.90;;;;;;5017379;28;19964;-75
2022/04/23 10:31:17;;;;;;;;;;;;;;;;;;5009895;28;19905;-75
2022/04/23 10:33:46;;;;;;;;;;;18.70;99.90;;;;;;5016904;28;19917;-75
2022/04/23 10:36:13;;;;;;;;;;;18.50;99.90;;;;;;5024240;28;19909;-75
2022/04/23 10:38:52;;;;;;;;;;;;;;;;;;5021423;28;19916;-75
2022/04/23 10:41:23;;;;;;;;;;;18.20;99.90;;;;;;5006447;28;19952;-75
2022/04/23 10:44:04;;;;;;;;;;;18.10;99.90;;;;;;5009441;28;19906;-75
2022/04/23 10:46:42;;;;;;;;;;;18.00;99.90;;;;;;5015097;28;20387;-74
2022/04/23 10:49:08;;;;;;;;;;;;;;;;;;5018720;28;20265;-75
2022/04/23 10:51:46;;;;;;;;;;;17.90;99.90;;;;;;5005855;28;19910;-75
2022/04/23 10:54:12;;;;;;;;;;;;;;;;;;5032230;28;19944;-74
2022/04/23 10:56:47;;;;;;;;;;;17.70;99.90;;;;;;5020997;28;20411;-74
2022/04/23 10:59:31;;;;;;;;;;;17.80;99.90;;;;;;5011558;28;19909;-74
2022/04/23 11:13:55;;;;;;;;;;;;;;;;;;5014820;28;20044;-78
2022/04/23 11:19:07;;;;;;;;;;;17.90;99.90;;;;;;5010725;28;19916;-76
2022/04/23 11:21:38;;;;;;;;;;;18.00;99.90;;;;;;5020730;28;19909;-77
2022/04/23 11:24:04;;;;;;;;;;;18.10;99.90;;;;;;5031780;28;19909;-73
2022/04/23 11:26:39;;;;;;;;;;;18.20;99.90;;;;;;5007252;28;19914;-73
2022/04/23 11:29:05;;;;;;;;;;;18.10;99.90;;;;;;5009140;28;19932;-73
2022/04/23 11:31:31;;;;;;;;;;;18.20;99.90;;;;;;5015153;28;20345;-73
2022/04/23 11:33:57;;;;;;;;;;;;;;;;;;5015110;28;19905;-71
2022/04/23 11:36:26;;;;;;;;;;;18.30;99.90;;;;;;5023106;28;19909;-70
2022/04/23 11:38:53;;;;;;;;;;;18.40;99.90;;;;;;5034522;28;19905;-71
2022/04/23 11:41:19;;;;;;;;;;;;;;;;;;5033287;28;19905;-70
2022/04/23 11:43:45;;;;;;;;;;;;;;;;;;5030146;28;19949;-75
2022/04/23 11:46:11;;;;;;;;;;;18.60;99.90;;;;;;5017419;28;19910;-77
2022/04/23 11:48:51;;;;;;;;;;;18.70;99.90;;;;;;5015782;28;19917;-77
2022/04/23 11:51:20;;;;;;;;;;;18.80;99.90;;;;;;5034483;28;19905;-77
2022/04/23 11:53:46;;;;;;;;;;;;;;;;;;5007376;28;19916;-77
2022/04/23 11:56:25;;;;;;;;;;;;;;;;;;5006208;28;19909;-77
2022/04/23 11:58:52;;;;;;;;;;;18.60;99.90;;;;;;5029672;28;19905;-77
2022/04/23 12:01:20;;;;;;;;;;;18.40;99.90;;;;;;5033952;28;19911;-77
2022/04/23 12:03:46;;;;;;;;;;;;;;;;;;5034828;28;19913;-76
2022/04/23 12:06:11;;;;;;;;;;;18.30;99.90;;;;;;5011890;28;20249;-76
2022/04/23 12:08:37;;;;;;;;;;;18.30;99.90;;;;;;5014770;28;19951;-76
2022/04/23 12:11:03;;;;;;;;;;;18.50;99.90;;;;;;5011833;28;19912;-76
2022/04/23 12:13:33;;;;;;;;;;;18.60;99.90;;;;;;5009025;28;19955;-76
2022/04/23 12:15:59;;;;;;;;;;;18.80;99.90;;;;;;5014542;28;19913;-77
2022/04/23 12:18:24;;;;;;;;;;;18.90;99.90;;;;;;5014784;28;19906;-76
2022/04/23 12:20:50;;;;;;;;;;;19.00;99.90;;;;;;5025640;28;19909;-76
2022/04/23 12:23:16;;;;;;;;;;;;;;;;;;5025194;28;19905;-77
2022/04/23 12:25:42;;;;;;;;;;;19.20;99.90;;;;;;5019333;28;19914;-76
2022/04/23 12:40:44;;;;;;;;;;;19.30;99.90;;;;;;5005684;28;19906;-76
2022/04/23 12:42:19;;;;;;;;;;;19.10;99.90;;;;;;5024158;28;19951;-78
2022/04/23 12:44:51;;;;;;;;;;;19.10;99.90;;;;;;5025981;28;19909;-79
2022/04/23 12:47:20;;;;;;;;;;;19.10;99.90;;;;;;5016554;28;19906;-80
2022/04/23 12:49:56;;;;;;;;;;;;;;;;;;5000980;28;20550;-76
2022/04/23 12:52:22;;;;;;;;;;;;;;;;;;5013714;28;19967;-76
2022/04/23 12:55:06;;;;;;;;;;;19.00;99.90;;;;;;5000377;28;19913;-76
2022/04/23 12:57:33;;;;;;;;;;;19.20;99.90;;;;;;5021027;28;19912;-76
2022/04/23 12:59:58;;;;;;;;;;;19.20;99.90;;;;;;5013675;28;19963;-75
2022/04/23 13:02:24;;;;;;;;;;;19.20;99.90;;;;;;5014728;28;19913;-76
2022/04/23 13:04:50;;;;;;;;;;;19.10;99.90;;;;;;5027223;28;19913;-76
2022/04/23 13:10:00;;;;;;;;;;;18.90;99.90;;;;;;5023636;28;20394;-75
2022/04/23 13:12:26;;;;;;;;;;;;;;;;;;5012495;28;19909;-76
2022/04/23 13:14:52;;;;;;;;;;;;;;;;;;5013551;28;20271;-75
2022/04/23 13:17:31;;;;;;;;;;;;;;;;;;5013976;28;19949;-76
2022/04/23 13:20:04;;;;;;;;;;;19.00;99.90;;;;;;5025625;28;19983;-77
2022/04/23 13:22:30;;;;;;;;;;;19.30;99.90;;;;;;5000095;28;19914;-77
2022/04/23 13:25:02;;;;;;;;;;;;;;;;;;5024988;28;19909;-78
2022/04/23 13:27:32;;;;;;;;;;;20.00;99.90;;;;;;5014201;28;19905;-78
2022/04/23 13:29:58;;;;;;;;;;;20.20;99.90;;;;;;5012305;28;19913;-71
2022/04/23 13:32:24;;;;;;;;;;;20.30;99.90;;;;;;5013425;28;19905;-71
2022/04/23 13:34:50;;;;;;;;;;;;;;;;;;5023549;28;19964;-71
2022/04/23 13:37:16;;;;;;;;;;;;;;;;;;5023631;28;19996;-71
2022/04/23 13:39:42;;;;;;;;;;;;;;;;;;5036757;28;19905;-71
2022/04/23 13:42:07;;;;;;;;;;;20.00;99.90;;;;;;5015841;28;19913;-72
2022/04/23 13:44:34;;;;;;;;;;;20.00;99.90;;;;;;5014815;28;19913;-71
2022/04/23 13:47:01;;;;;;;;;;;20.00;99.90;;;;;;5022337;28;19973;-78
2022/04/23 13:49:27;;;;;;;;;;;;;;;;;;5021358;28;19913;-72
2022/04/23 13:51:52;;;;;;;;;;;20.10;99.90;;;;;;5018117;28;19959;-76
2022/04/23 13:54:19;;;;;;;;;;;20.20;99.90;;;;;;5011522;28;19996;-76
2022/04/23 13:56:45;;;;;;;;;;;20.10;99.90;;;;;;5017089;28;19964;-76
2022/04/23 13:59:19;;;;;;;;;;;20.10;99.90;;;;;;5016921;28;19905;-76
2022/04/23 14:10:07;;;;;;;;;;;20.60;99.90;;;;;;5014792;28;20419;-77
2022/04/23 14:12:34;;;;;;;;;;;20.40;99.90;;;;;;5010846;28;20396;-76
2022/04/23 14:15:01;;;;;;;;;;;;;;;;;;5015611;28;20234;-77
2022/04/23 14:17:29;;;;;;;;;;;20.60;99.90;;;;;;5014527;28;19913;-75
2022/04/23 14:19:55;;;;;;;;;;;20.30;99.90;;;;;;5014613;28;19905;-76
2022/04/23 14:22:21;;;;;;;;;;;;;;;;;;5028591;28;19920;-75
2022/04/23 14:24:49;;;;;;;;;;;20.70;99.90;;;;;;5023618;28;19912;-75
2022/04/23 14:27:15;;;;;;;;;;;20.70;99.90;;;;;;5016444;28;19909;-75
2022/04/23 14:29:41;;;;;;;;;;;;;;;;;;5019907;28;19909;-75
2022/04/23 14:32:07;;;;;;;;;;;20.80;99.90;;;;;;5015204;28;20304;-75
2022/04/23 14:34:34;;;;;;;;;;;20.80;99.90;;;;;;5023936;28;20408;-75
2022/04/23 14:37:00;;;;;;;;;;;20.50;99.90;;;;;;5012640;28;19959;-75
2022/04/23 14:39:26;;;;;;;;;;;20.50;99.90;;;;;;4995480;28;19910;-76
2022/04/23 14:41:52;;;;;;;;;;;20.10;99.90;;;;;;5025398;28;20407;-77
2022/04/23 14:44:19;;;;;;;;;;;19.90;99.90;;;;;;5010285;28;19920;-76
2022/04/23 14:46:55;;;;;;;;;;;19.60;99.90;;;;;;5028856;28;19912;-76
2022/04/23 14:49:22;;;;;;;;;;;;;;;;;;5014837;28;19917;-77
2022/04/23 14:54:41;;;;;;;;;;;19.30;99.90;;;;;;5016049;28;20419;-80
2022/04/23 14:57:07;;;;;;;;;;;19.40;99.90;;;;;;4996308;28;19956;-78
2022/04/23 14:59:43;;;;;;;;;;;19.40;99.90;;;;;;5009313;28;19905;-79
2022/04/23 15:02:13;;;;;;;;;;;19.40;99.90;;;;;;5016014;28;20569;-78
2022/04/23 15:04:43;;;;;;;;;;;19.50;99.90;;;;;;5017708;28;19970;-78
2022/04/23 15:07:13;;;;;;;;;;;;;;;;;;5035250;28;20004;-81
2022/04/23 15:12:32;;;;;;;;;;;19.60;99.90;;;;;;5015889;28;19967;-79
2022/04/23 15:14:58;;;;;;;;;;;19.60;99.90;;;;;;5015612;28;20276;-79
2022/04/23 15:17:37;;;;;;;;;;;19.70;99.90;;;;;;5034919;28;19991;-80
2022/04/23 15:20:04;;;;;;;;;;;19.70;99.90;;;;;;4996205;28;20340;-75
2022/04/23 15:22:30;;;;;;;;;;;;;;;;;;5029931;28;19909;-76
2022/04/23 15:24:56;;;;;;;;;;;;;;;;;;5007705;28;19917;-76
2022/04/23 15:27:22;;;;;;;;;;;20.30;99.90;;;;;;5022178;28;19996;-76
2022/04/23 15:29:47;;;;;;;;;;;20.40;99.90;;;;;;5022189;28;20008;-75
2022/04/23 15:32:13;;;;;;;;;;;20.50;99.90;;;;;;5033992;28;19905;-77
2022/04/23 15:34:42;;;;;;;;;;;20.70;99.90;;;;;;5032986;28;19915;-75
2022/04/23 15:37:08;;;;;;;;;;;20.70;99.90;;;;;;5034317;28;19920;-81
2022/04/23 15:39:34;;;;;;;;;;;;;;;;;;5024094;28;19905;-81
2022/04/23 15:42:02;;;;;;;;;;;24.30;99.90;;;;;;5025833;28;19913;-80
2022/04/23 15:44:27;;;;;;;;;;;20.90;99.90;;;;;;5013204;28;20016;-83
2022/04/23 15:46:53;;;;;;;;;;;20.90;99.90;;;;;;5013109;28;20016;-83
2022/04/23 15:49:19;;;;;;;;;;;21.10;99.90;;;;;;5012765;28;20034;-83
2022/04/23 15:51:44;;;;;;;;;;;21.10;99.90;;;;;;5029957;28;20253;-82
2022/04/23 15:54:10;;;;;;;;;;;21.20;99.90;;;;;;5033768;28;19936;-82
2022/04/23 15:56:37;;;;;;;;;;;;;;;;;;5031147;28;19910;-82
2022/04/23 15:59:03;;;;;;;;;;;;;;;;;;5016507;28;20276;-82
2022/04/23 16:01:28;;;;;;;;;;;21.00;99.90;;;;;;5029158;28;19916;-81
2022/04/23 16:03:54;;;;;;;;;;;20.90;99.90;;;;;;5033670;28;19917;-81
2022/04/23 16:06:31;;;;;;;;;;;21.00;99.90;;;;;;5026209;28;19917;-82
2022/04/23 16:09:32;;;;;;;;;;;21.10;99.90;;;;;;5011702;28;19915;-81
2022/04/23 16:12:19;;;;;;;;;;;21.30;99.90;;;;;;5019155;28;19916;-82
2022/04/23 16:14:45;;;;;;;;;;;21.40;99.90;;;;;;5011082;28;19909;-82
2022/04/23 16:17:10;;;;;;;;;;;21.50;99.90;;;;;;5018469;28;19917;-83
2022/04/23 16:19:36;;;;;;;;;;;;;;;;;;5014220;28;19937;-69
2022/04/23 16:22:02;;;;;;;;;;;21.80;99.90;;;;;;5014135;28;19997;-72
2022/04/23 16:24:28;;;;;;;;;;;21.80;99.90;;;;;;5014545;28;19977;-73
2022/04/23 16:26:54;;;;;;;;;;;22.10;99.90;;;;;;5012154;28;19925;-71
2022/04/23 16:29:19;;;;;;;;;;;22.40;99.90;;;;;;5019159;28;19932;-73
2022/04/23 16:31:45;;;;;;;;;;;22.40;99.90;;;;;;5026815;28;19951;-71
2022/04/23 16:34:11;;;;;;;;;;;;;;;;;;5021130;28;19944;-71
2022/04/23 16:47:44;;;;;;;;;;;21.70;99.90;;;;;;5015456;28;19920;-82
2022/04/23 16:50:10;;;;;;;;;;;21.50;99.90;;;;;;5013727;28;20004;-79